createdAt,value
2022-12-10T00:04:01.654Z,0.04
2022-12-10T00:09:01.328Z,0.04
2022-12-10T00:14:00.816Z,0.04
2022-12-10T00:18:59.596Z,0.04
2022-12-10T00:23:58.279Z,0.04
2022-12-10T00:28:57.993Z,0.05
2022-12-10T00:33:57.958Z,0.04
2022-12-10T00:38:57.758Z,0.04
2022-12-10T00:43:57.310Z,0.04
2022-12-10T00:48:56.450Z,0.04
2022-12-10T00:53:55.601Z,0.04
2022-12-10T00:58:55.418Z,0.04
2022-12-10T01:03:54.080Z,0.04
2022-12-10T01:08:53.813Z,0.04
2022-12-10T01:13:52.326Z,0.04
2022-12-10T01:18:52.837Z,0.04
2022-12-10T01:23:52.567Z,0.04
2022-12-10T01:28:51.716Z,0.04
2022-12-10T01:33:51.917Z,0.05
2022-12-10T01:38:50.049Z,0.04
2022-12-10T01:43:50.123Z,0.04
2022-12-10T01:48:49.570Z,0.04
2022-12-10T01:53:48.461Z,0.04
2022-12-10T01:58:47.006Z,0.05
2022-12-10T02:03:46.849Z,0.04
2022-12-10T02:08:46.867Z,0.04
2022-12-10T02:13:45.982Z,0.04
2022-12-10T02:18:44.708Z,0.05
2022-12-10T02:23:43.609Z,0.04
2022-12-10T02:28:43.247Z,0.04
2022-12-10T02:33:43.069Z,0.04
2022-12-10T02:38:41.312Z,0.04
2022-12-10T02:43:40.389Z,0.04
2022-12-10T02:48:39.880Z,0.04
2022-12-10T02:53:38.853Z,0.04
2022-12-10T02:58:37.998Z,0.04
2022-12-10T02:59:57.960Z,0.04
2022-12-10T03:04:57.596Z,0.04
2022-12-10T03:09:57.370Z,0.04
2022-12-10T03:14:57.655Z,0.04
2022-12-10T03:19:56.651Z,0.04
2022-12-10T03:24:56.068Z,0.04
2022-12-10T03:29:55.654Z,0.04
2022-12-10T03:34:54.864Z,0.04
2022-12-10T03:39:53.893Z,0.05
2022-12-10T03:44:53.696Z,0.04
2022-12-10T03:49:53.350Z,0.04
2022-12-10T03:54:53.286Z,0.04
2022-12-10T03:59:10.169Z,0.04
2022-12-10T04:04:10.204Z,0.04
2022-12-10T04:09:07.991Z,0.04
2022-12-10T04:14:08.080Z,0.04
2022-12-10T04:19:07.236Z,0.04
2022-12-10T04:24:06.353Z,0.04
2022-12-10T04:29:05.056Z,0.04
2022-12-10T04:34:04.116Z,0.04
2022-12-10T04:39:03.849Z,0.05
2022-12-10T04:44:03.588Z,0.04
2022-12-10T04:49:02.305Z,0.04
2022-12-10T04:54:01.984Z,0.04
2022-12-10T04:58:48.069Z,0.04
2022-12-10T05:03:47.866Z,0.04
2022-12-10T05:08:47.489Z,0.04
2022-12-10T05:13:47.231Z,0.04
2022-12-10T05:18:45.978Z,0.04
2022-12-10T05:23:45.833Z,0.04
2022-12-10T05:28:45.440Z,0.05
2022-12-10T05:33:45.040Z,0.04
2022-12-10T05:38:43.648Z,0.04
2022-12-10T05:43:42.777Z,0.04
2022-12-10T05:48:41.043Z,0.04
2022-12-10T05:53:40.743Z,0.04
2022-12-10T05:58:40.200Z,0.04
2022-12-10T06:03:39.268Z,0.04
2022-12-10T06:08:37.959Z,0.04
2022-12-10T06:13:37.095Z,0.04
2022-12-10T06:18:36.382Z,0.04
2022-12-10T06:23:36.330Z,0.04
2022-12-10T06:28:34.983Z,0.05
2022-12-10T06:33:34.429Z,0.04
2022-12-10T06:38:33.087Z,0.05
2022-12-10T06:43:33.062Z,0.05
2022-12-10T06:48:32.897Z,0.05
2022-12-10T06:53:32.332Z,0.06
2022-12-10T06:58:31.560Z,0.07
2022-12-10T07:03:32.521Z,0.1
2022-12-10T07:08:30.144Z,0.14
2022-12-10T07:13:33.175Z,0.19
2022-12-10T07:18:28.141Z,0.24
2022-12-10T07:23:28.004Z,0.24
2022-12-10T07:28:27.504Z,0.31
2022-12-10T07:33:27.640Z,0.43
2022-12-10T07:38:26.349Z,0.49
2022-12-10T07:43:25.526Z,0.55
2022-12-10T07:48:24.172Z,0.71
2022-12-10T07:53:23.898Z,0.81
2022-12-10T07:58:19.529Z,0.85
2022-12-10T08:03:18.577Z,1
2022-12-10T08:08:28.807Z,1.07
2022-12-10T08:13:26.544Z,1.19
2022-12-10T08:18:25.829Z,1.26
2022-12-10T08:23:25.744Z,1.53
2022-12-10T08:28:25.063Z,1.67
2022-12-10T08:33:24.330Z,1.79
2022-12-10T08:38:23.803Z,1.87
2022-12-10T08:43:23.209Z,1.86
2022-12-10T08:48:22.456Z,2.05
2022-12-10T08:53:11.483Z,2.17
2022-12-10T08:58:10.199Z,2
2022-12-10T08:59:30.383Z,2.12
2022-12-10T09:04:29.363Z,1.98
2022-12-10T09:09:29.018Z,2.31
2022-12-10T09:14:28.801Z,2.46
2022-12-10T09:19:27.256Z,2.93
2022-12-10T09:24:26.631Z,3.03
2022-12-10T09:29:25.407Z,3
2022-12-10T09:34:25.304Z,2.93
2022-12-10T09:39:24.393Z,3.26
2022-12-10T09:44:23.876Z,3.07
2022-12-10T09:49:23.051Z,2.76
2022-12-10T09:54:21.549Z,2.5
2022-12-10T09:59:08.988Z,2.76
2022-12-10T10:04:08.051Z,2.94
2022-12-10T10:09:07.510Z,2.88
2022-12-10T10:14:06.711Z,2.88
2022-12-10T10:19:06.142Z,2.45
2022-12-10T10:24:13.704Z,2.58
2022-12-10T10:29:04.879Z,2.5
2022-12-10T10:34:04.141Z,3.07
2022-12-10T10:39:03.334Z,3.27
2022-12-10T10:44:03.358Z,3.53
2022-12-10T10:49:02.900Z,3.43
2022-12-10T10:54:09.728Z,3.18
2022-12-10T10:58:49.745Z,3.52
2022-12-10T11:03:49.419Z,3.68
2022-12-10T11:08:47.763Z,3.74
2022-12-10T11:13:47.826Z,3.68
2022-12-10T11:18:46.561Z,3.49
2022-12-10T11:23:45.884Z,3.49
2022-12-10T11:28:44.704Z,3.63
2022-12-10T11:33:44.675Z,3.75
2022-12-10T11:38:44.588Z,3.82
2022-12-10T11:43:44.455Z,4.29
2022-12-10T11:48:45.747Z,3.93
2022-12-10T11:53:42.763Z,4.4
2022-12-10T11:58:42.491Z,4.45
2022-12-10T12:03:42.178Z,4.38
2022-12-10T12:08:40.504Z,4.13
2022-12-10T12:13:39.763Z,3.63
2022-12-10T12:18:38.558Z,3.06
2022-12-10T12:23:37.825Z,3.01
2022-12-10T12:28:37.784Z,3.35
2022-12-10T12:33:36.769Z,3.56
2022-12-10T12:38:36.082Z,4.59
2022-12-10T12:43:35.784Z,5.08
2022-12-10T12:48:35.548Z,5.08
2022-12-10T12:53:38.249Z,4.51
2022-12-10T12:58:33.791Z,3.6
2022-12-10T12:59:54.212Z,3.39
2022-12-10T13:04:52.781Z,2.63
2022-12-10T13:09:52.789Z,2.52
2022-12-10T13:14:52.256Z,2.47
2022-12-10T13:19:50.699Z,2.35
2022-12-10T13:24:49.817Z,2.18
2022-12-10T13:29:49.218Z,2.29
2022-12-10T13:34:48.369Z,2.65
2022-12-10T13:39:48.002Z,2.5
2022-12-10T13:44:47.454Z,2.25
2022-12-10T13:49:46.211Z,2.03
2022-12-10T13:54:46.100Z,1.7
2022-12-10T13:58:48.769Z,1.62
2022-12-10T14:00:15.610Z,1.57
2022-12-10T14:05:07.991Z,1.47
2022-12-10T14:10:07.431Z,1.21
2022-12-10T14:15:08.142Z,1.32
2022-12-10T14:20:06.413Z,1.29
2022-12-10T14:25:05.044Z,1.26
2022-12-10T14:30:04.773Z,1.12
2022-12-10T14:35:03.514Z,0.98
2022-12-10T14:40:02.783Z,0.93
2022-12-10T14:45:02.557Z,0.95
2022-12-10T14:50:01.776Z,0.89
2022-12-10T14:55:00.245Z,0.75
2022-12-10T14:59:20.442Z,0.64
2022-12-10T15:04:28.786Z,0.48
2022-12-10T15:09:18.647Z,0.35
2022-12-10T15:14:18.360Z,0.27
2022-12-10T15:19:28.926Z,0.27
2022-12-10T15:24:28.274Z,0.23
2022-12-10T15:29:30.445Z,0.16
2022-12-10T15:34:30.197Z,0.12
2022-12-10T15:39:26.467Z,0.09
2022-12-10T15:44:25.447Z,0.06
2022-12-10T15:49:25.332Z,0.05
2022-12-10T15:54:24.690Z,0.05
2022-12-10T15:59:06.377Z,0.04
2022-12-10T16:04:06.688Z,0.04
2022-12-10T16:09:06.382Z,0.04
2022-12-10T16:14:05.060Z,0.04
2022-12-10T16:19:04.232Z,0.04
2022-12-10T16:24:03.660Z,0.04
2022-12-10T16:29:03.314Z,0.04
2022-12-10T16:34:02.687Z,0.04
2022-12-10T16:39:00.900Z,0.04
2022-12-10T16:44:00.400Z,0.04
2022-12-10T16:48:58.617Z,0.05
2022-12-10T16:53:58.953Z,0.04
2022-12-10T16:58:46.630Z,0.05
2022-12-10T17:03:45.683Z,0.04
2022-12-10T17:08:44.478Z,0.05
2022-12-10T17:13:44.337Z,0.04
2022-12-10T17:18:43.873Z,0.04
2022-12-10T17:23:43.039Z,0.04
2022-12-10T17:28:41.806Z,0.04
2022-12-10T17:33:40.640Z,0.04
2022-12-10T17:38:40.910Z,0.04
2022-12-10T17:43:39.838Z,0.04
2022-12-10T17:48:39.377Z,0.04
2022-12-10T17:53:38.296Z,0.05
2022-12-10T17:58:37.526Z,0.04
2022-12-10T18:03:36.294Z,0.04
2022-12-10T18:08:36.223Z,0.04
2022-12-10T18:13:35.854Z,0.04
2022-12-10T18:18:34.381Z,0.05
2022-12-10T18:23:33.674Z,0.04
2022-12-10T18:28:32.788Z,0.04
2022-12-10T18:33:32.389Z,0.04
2022-12-10T18:38:30.645Z,0.05
2022-12-10T18:43:31.022Z,0.04
2022-12-10T18:48:29.555Z,0.05
2022-12-10T18:53:29.333Z,0.04
2022-12-10T18:58:29.055Z,0.05
2022-12-10T19:03:29.071Z,0.05
2022-12-10T19:08:27.453Z,0.04
2022-12-10T19:13:27.303Z,0.05
2022-12-10T19:18:25.356Z,0.04
2022-12-10T19:23:25.319Z,0.04
2022-12-10T19:28:25.952Z,0.05
2022-12-10T19:33:23.885Z,0.04
2022-12-10T19:38:23.164Z,0.04
2022-12-10T19:43:22.108Z,0.04
2022-12-10T19:48:21.616Z,0.05
2022-12-10T19:53:21.114Z,0.04
2022-12-10T19:58:25.325Z,0.05
2022-12-10T20:03:24.984Z,0.05
2022-12-10T20:08:24.573Z,0.04
2022-12-10T20:13:24.008Z,0.05
2022-12-10T20:18:23.359Z,0.05
2022-12-10T20:23:23.137Z,0.04
2022-12-10T20:28:23.198Z,0.05
2022-12-10T20:33:48.300Z,0.04
2022-12-10T20:38:10.409Z,0.04
2022-12-10T20:43:10.043Z,0.04
2022-12-10T20:48:09.836Z,0.04
2022-12-10T20:53:08.423Z,0.04
2022-12-10T20:58:07.323Z,0.04
2022-12-10T20:59:27.496Z,0.04
2022-12-10T21:04:27.104Z,0.05
2022-12-10T21:09:27.595Z,0.05
2022-12-10T21:15:21.856Z,0.04
2022-12-10T21:19:24.781Z,0.04
2022-12-10T21:24:25.189Z,0.05
2022-12-10T21:29:23.910Z,0.04
2022-12-10T21:34:22.523Z,0.05
2022-12-10T21:39:27.262Z,0.05
2022-12-10T21:44:21.687Z,0.05
2022-12-10T21:49:20.570Z,0.05
2022-12-10T21:54:21.081Z,0.04
2022-12-10T21:59:07.548Z,0.05
2022-12-10T22:04:07.456Z,0.04
2022-12-10T22:09:07.704Z,0.04
2022-12-10T22:14:06.452Z,0.05
2022-12-10T22:19:05.940Z,0.05
2022-12-10T22:24:05.201Z,0.05
2022-12-10T22:29:04.296Z,0.04
2022-12-10T22:34:03.717Z,0.05
2022-12-10T22:39:02.623Z,0.05
2022-12-10T22:44:01.670Z,0.05
2022-12-10T22:49:01.439Z,0.05
2022-12-10T22:54:01.064Z,0.05
2022-12-10T22:59:00.347Z,0.04
2022-12-10T23:03:59.785Z,0.04
2022-12-10T23:08:58.316Z,0.05
2022-12-10T23:13:57.979Z,0.05
2022-12-10T23:18:57.522Z,0.05
2022-12-10T23:23:56.167Z,0.04
2022-12-10T23:28:54.962Z,0.05
2022-12-10T23:33:53.810Z,0.05
2022-12-10T23:38:53.698Z,0.05
2022-12-10T23:43:59.598Z,0.05
2022-12-10T23:48:53.029Z,0.04
2022-12-10T23:53:51.618Z,0.05
2022-12-10T23:58:50.856Z,0.05
